createdAt,value
2023-05-05T00:00:13.758Z,0.0000
2023-05-05T00:01:14.809Z,0.0000
2023-05-05T00:02:15.424Z,0.0000
2023-05-05T00:03:16.730Z,0.0000
2023-05-05T00:04:18.039Z,0.0000
2023-05-05T00:05:18.293Z,0.0000
2023-05-05T00:06:18.840Z,0.0000
2023-05-05T00:07:19.366Z,0.0000
2023-05-05T00:08:19.678Z,0.0000
2023-05-05T00:09:20.233Z,0.0000
2023-05-05T00:10:21.108Z,0.0000
2023-05-05T00:11:22.177Z,0.0000
2023-05-05T00:12:22.752Z,0.0000
2023-05-05T00:13:23.906Z,0.0000
2023-05-05T00:14:24.702Z,0.0000
2023-05-05T00:15:25.265Z,0.0000
2023-05-05T00:16:26.065Z,0.0000
2023-05-05T00:17:26.985Z,0.0000
2023-05-05T00:18:28.135Z,0.0000
2023-05-05T00:19:28.868Z,0.0000
2023-05-05T00:20:30.070Z,0.0000
2023-05-05T00:21:30.842Z,0.0000
2023-05-05T00:22:31.664Z,0.0000
2023-05-05T00:23:32.228Z,0.0000
2023-05-05T00:24:32.881Z,0.0000
2023-05-05T00:25:33.534Z,0.0000
2023-05-05T00:26:34.265Z,0.0000
2023-05-05T00:27:35.079Z,0.0000
2023-05-05T00:28:35.635Z,0.0000
2023-05-05T00:29:36.427Z,0.0000
2023-05-05T00:30:37.330Z,0.0000
2023-05-05T00:31:38.190Z,0.0000
2023-05-05T00:32:39.155Z,0.0000
2023-05-05T00:33:39.786Z,0.0000
2023-05-05T00:34:40.648Z,0.0000
2023-05-05T00:35:41.558Z,0.0000
2023-05-05T00:36:43.289Z,0.0000
2023-05-05T00:37:43.320Z,0.0000
2023-05-05T00:38:44.078Z,0.0000
2023-05-05T00:39:45.009Z,0.0000
2023-05-05T00:40:45.929Z,0.0000
2023-05-05T00:41:46.637Z,0.0000
2023-05-05T00:42:47.538Z,0.0000
2023-05-05T00:43:48.382Z,0.0000
2023-05-05T00:44:48.970Z,0.0000
2023-05-05T00:45:49.610Z,0.0000
2023-05-05T00:46:50.643Z,0.0000
2023-05-05T00:47:51.825Z,0.0000
2023-05-05T00:48:53.918Z,0.0000
2023-05-05T00:49:53.577Z,0.0000
2023-05-05T00:50:54.483Z,0.0000
2023-05-05T00:51:55.331Z,0.0000
2023-05-05T00:52:56.016Z,0.0000
2023-05-05T00:53:56.963Z,0.0000
2023-05-05T00:54:57.617Z,0.0000
2023-05-05T00:55:58.344Z,0.0000
2023-05-05T00:56:59.269Z,0.0000
2023-05-05T00:57:59.882Z,0.0000
2023-05-05T00:59:01.470Z,0.0000
2023-05-05T01:00:01.207Z,0.0000
2023-05-05T01:01:01.929Z,0.0000
2023-05-05T01:02:02.796Z,0.0000
2023-05-05T01:04:22.425Z,0.0000
2023-05-05T01:05:23.413Z,0.0000
2023-05-05T01:11:30.482Z,0.0000
2023-05-05T01:12:31.813Z,0.0000
2023-05-05T01:18:37.687Z,0.0000
2023-05-05T01:19:38.273Z,0.0000
2023-05-05T01:20:39.394Z,0.0000
2023-05-05T01:21:39.720Z,0.0000
2023-05-05T01:22:40.871Z,0.0000
2023-05-05T01:23:41.694Z,0.0000
2023-05-05T01:24:43.325Z,0.0000
2023-05-05T01:25:43.449Z,0.0000
2023-05-05T01:26:44.260Z,0.0000
2023-05-05T01:27:45.045Z,0.0000
2023-05-05T01:30:47.184Z,0.0000
2023-05-05T01:31:48.303Z,0.0000
2023-05-05T01:36:51.868Z,0.0000
2023-05-05T01:37:51.911Z,0.0000
2023-05-05T01:38:51.981Z,0.0000
2023-05-05T01:39:52.430Z,0.0000
2023-05-05T01:40:53.636Z,0.0000
2023-05-05T01:41:55.793Z,0.0000
2023-05-05T01:42:58.013Z,0.0000
2023-05-05T01:44:00.275Z,0.0000
2023-05-05T01:45:02.319Z,0.0000
2023-05-05T01:46:03.449Z,0.0000
2023-05-05T01:47:04.491Z,0.0000
2023-05-05T01:54:15.317Z,0.0000
2023-05-05T02:00:19.223Z,0.0000
2023-05-05T02:01:19.766Z,0.0000
2023-05-05T02:03:20.976Z,0.0000
2023-05-05T02:04:22.030Z,0.0000
2023-05-05T02:05:22.887Z,0.0000
2023-05-05T02:06:22.973Z,0.0000
2023-05-05T02:07:24.647Z,0.0000
2023-05-05T02:08:24.344Z,0.0000
2023-05-05T02:09:25.332Z,0.0000
2023-05-05T02:10:26.071Z,0.0000
2023-05-05T02:11:26.115Z,0.0000
2023-05-05T02:12:29.661Z,0.0000
2023-05-05T02:13:26.841Z,0.0000
2023-05-05T02:14:27.137Z,0.0000
2023-05-05T02:15:27.952Z,0.0000
2023-05-05T02:16:29.119Z,0.0000
2023-05-05T02:17:30.086Z,0.0000
2023-05-05T02:18:30.849Z,0.0000
2023-05-05T02:19:31.681Z,0.0000
2023-05-05T02:20:31.770Z,0.0000
2023-05-05T02:21:32.693Z,0.0000
2023-05-05T02:22:33.552Z,0.0000
2023-05-05T02:23:34.311Z,0.0000
2023-05-05T02:24:35.104Z,0.0000
2023-05-05T02:25:36.399Z,0.0000
2023-05-05T02:26:37.280Z,0.0000
2023-05-05T02:27:38.256Z,0.0000
2023-05-05T02:28:38.938Z,0.0000
2023-05-05T02:29:40.241Z,0.0000
2023-05-05T02:30:40.637Z,0.0000
2023-05-05T02:31:41.670Z,0.0000
2023-05-05T02:32:42.927Z,0.0000
2023-05-05T02:33:43.828Z,0.0000
2023-05-05T02:34:44.540Z,0.0000
2023-05-05T02:35:45.493Z,0.0000
2023-05-05T02:36:46.260Z,0.0000
2023-05-05T02:37:47.122Z,0.0000
2023-05-05T02:38:48.120Z,0.0000
2023-05-05T02:39:48.751Z,0.0000
2023-05-05T02:42:50.067Z,0.0000
2023-05-05T02:44:50.394Z,0.0000
2023-05-05T02:45:51.380Z,0.0000
2023-05-05T02:46:52.534Z,0.0000
2023-05-05T02:47:53.717Z,0.0000
2023-05-05T02:48:54.204Z,0.0000
2023-05-05T02:49:55.409Z,0.0000
2023-05-05T02:50:55.371Z,0.0000
2023-05-05T02:51:56.000Z,0.0000
2023-05-05T02:52:56.690Z,0.0000
2023-05-05T02:53:57.554Z,0.0000
2023-05-05T02:54:57.921Z,0.0000
2023-05-05T02:55:58.365Z,0.0000
2023-05-05T02:56:59.541Z,0.0000
2023-05-05T02:58:00.426Z,0.0000
2023-05-05T02:59:01.268Z,0.0000
2023-05-05T03:00:01.321Z,0.0000
2023-05-05T03:01:01.985Z,0.0000
2023-05-05T03:02:02.217Z,0.0000
2023-05-05T03:03:03.594Z,0.0000
2023-05-05T03:04:03.775Z,0.0000
2023-05-05T03:05:04.643Z,0.0000
2023-05-05T03:06:05.548Z,0.0000
2023-05-05T03:07:06.455Z,0.0000
2023-05-05T03:08:07.354Z,0.0000
2023-05-05T03:09:08.227Z,0.0000
2023-05-05T03:10:09.444Z,0.0000
2023-05-05T03:11:09.268Z,0.0000
2023-05-05T03:12:10.065Z,0.0000
2023-05-05T03:13:11.368Z,0.0000
2023-05-05T03:14:12.154Z,0.0000
2023-05-05T03:15:13.087Z,0.0000
2023-05-05T03:16:14.132Z,0.0000
2023-05-05T03:17:15.057Z,0.0000
2023-05-05T03:18:16.398Z,0.0000
2023-05-05T03:19:17.092Z,0.0000
2023-05-05T03:20:17.404Z,0.0000
2023-05-05T03:21:18.445Z,0.0000
2023-05-05T03:22:19.158Z,0.0000
2023-05-05T03:23:20.355Z,0.0000
2023-05-05T03:24:20.224Z,0.0000
2023-05-05T03:25:20.991Z,0.0000
2023-05-05T03:26:21.659Z,0.0000
2023-05-05T03:27:22.544Z,0.0000
2023-05-05T03:28:23.732Z,0.0000
2023-05-05T03:29:23.950Z,0.0000
2023-05-05T03:30:24.001Z,0.0000
2023-05-05T03:31:24.489Z,0.0000
2023-05-05T03:34:17.766Z,0.0000
2023-05-05T03:35:18.643Z,0.0000
2023-05-05T03:36:19.471Z,0.0000
2023-05-05T03:37:20.350Z,0.0000
2023-05-05T03:38:21.217Z,2.5333
2023-05-05T03:39:21.904Z,2.5556
2023-05-05T03:40:29.618Z,0.0000
2023-05-05T03:41:23.516Z,0.0000
2023-05-05T03:42:24.155Z,0.0000
2023-05-05T03:43:24.974Z,3.6444
2023-05-05T03:44:25.709Z,4.0000
2023-05-05T03:45:26.659Z,3.6000
2023-05-05T03:46:27.674Z,1.0000
2023-05-05T03:47:29.623Z,4.0222
2023-05-05T03:49:30.320Z,5.3556
2023-05-05T03:50:30.466Z,5.2045
2023-05-05T03:51:31.023Z,10.0000
2023-05-05T03:52:31.553Z,6.6364
2023-05-05T03:53:32.377Z,10.5333
2023-05-05T03:54:33.671Z,27.7111
2023-05-05T03:55:34.699Z,25.9778
2023-05-05T03:56:35.978Z,27.8444
2023-05-05T03:57:36.757Z,20.4222
2023-05-05T03:58:37.256Z,28.7727
2023-05-05T03:59:38.267Z,37.4000
2023-05-05T04:00:39.603Z,38.0476
2023-05-05T04:01:40.527Z,57.5000
2023-05-05T04:02:41.346Z,53.9459
2023-05-05T04:03:43.329Z,51.5000
2023-05-05T04:04:44.702Z,76.9756
2023-05-05T04:05:44.846Z,81.2500
2023-05-05T04:06:46.813Z,89.6905
2023-05-05T04:07:47.890Z,102.0976
2023-05-05T04:08:48.718Z,109.3171
2023-05-05T04:09:49.600Z,113.7561
2023-05-05T04:10:49.645Z,139.5500
2023-05-05T04:11:49.859Z,146.1951
2023-05-05T04:12:51.031Z,177.6829
2023-05-05T04:13:52.053Z,184.1000
2023-05-05T04:14:52.689Z,176.1219
2023-05-05T04:16:53.321Z,215.2927
2023-05-05T04:17:53.565Z,225.6250
2023-05-05T04:18:54.538Z,250.8781
2023-05-05T04:19:55.374Z,243.4146
2023-05-05T04:20:55.408Z,271.6750
2023-05-05T04:21:55.901Z,287.8537
2023-05-05T04:22:58.248Z,299.2381
2023-05-05T04:23:59.144Z,309.9024
2023-05-05T04:25:00.301Z,325.0732
2023-05-05T04:26:01.135Z,343.0488
2023-05-05T04:27:02.055Z,349.3415
2023-05-05T04:29:02.815Z,393.4750
2023-05-05T04:30:03.854Z,397.5366
2023-05-05T04:32:04.459Z,420.9773
2023-05-05T04:33:04.612Z,440.3636
2023-05-05T04:34:05.408Z,438.2667
2023-05-05T04:35:06.431Z,432.1333
2023-05-05T04:36:07.472Z,423.8889
2023-05-05T04:37:08.304Z,410.8889
2023-05-05T04:38:09.365Z,383.1111
2023-05-05T04:39:10.522Z,374.5555
2023-05-05T04:40:11.352Z,392.6222
2023-05-05T04:41:12.338Z,410.8222
2023-05-05T04:42:12.533Z,421.4546
2023-05-05T04:43:13.500Z,456.7778
2023-05-05T04:44:14.533Z,504.6222
2023-05-05T04:45:15.295Z,552.0667
2023-05-05T04:46:16.326Z,606.0889
2023-05-05T04:47:16.302Z,645.6136
2023-05-05T04:48:16.343Z,671.7500
2023-05-05T04:49:17.514Z,697.1111
2023-05-05T04:50:17.501Z,725.2727
2023-05-05T04:51:18.456Z,741.7333
2023-05-05T04:52:19.329Z,753.0667
2023-05-05T04:53:20.187Z,767.8864
2023-05-05T04:54:21.201Z,794.2667
2023-05-05T04:55:22.003Z,819.0000
2023-05-05T04:56:22.979Z,828.3778
2023-05-05T04:57:24.016Z,831.4000
2023-05-05T04:58:24.893Z,840.9111
2023-05-05T04:59:25.887Z,863.1334
2023-05-05T05:00:26.668Z,898.8000
2023-05-05T05:01:27.860Z,929.6000
2023-05-05T05:02:28.286Z,993.0682
2023-05-05T05:03:28.489Z,1058.6591
2023-05-05T05:04:28.811Z,1076.6364
2023-05-05T05:05:29.789Z,1040.0667
2023-05-05T05:06:30.777Z,1023.0444
2023-05-05T05:07:30.818Z,1036.4286
2023-05-05T05:08:31.680Z,1034.0000
2023-05-05T05:09:32.633Z,1038.1333
2023-05-05T05:10:33.600Z,1050.7556
2023-05-05T05:11:34.967Z,1069.5111
2023-05-05T05:12:35.115Z,1103.5227
2023-05-05T05:13:35.407Z,1139.7046
2023-05-05T05:14:36.423Z,1171.4773
2023-05-05T05:15:36.812Z,1192.2620
2023-05-05T05:16:37.094Z,1203.8636
2023-05-05T05:17:38.197Z,1232.2500
2023-05-05T05:18:39.662Z,1234.0227
2023-05-05T05:19:40.079Z,1254.2791
2023-05-05T05:20:40.756Z,1272.4318
2023-05-05T05:21:40.891Z,1293.5909
2023-05-05T05:22:41.519Z,1331.0454
2023-05-05T05:23:42.080Z,1366.4318
2023-05-05T05:24:43.231Z,1394.0227
2023-05-05T05:25:43.315Z,1423.2954
2023-05-05T05:26:44.607Z,1462.8889
2023-05-05T05:27:50.172Z,1482.0454
2023-05-05T05:28:45.870Z,1506.9032
2023-05-05T05:29:46.748Z,1507.3182
2023-05-05T05:30:47.486Z,1501.5454
2023-05-05T05:31:47.478Z,1515.8409
2023-05-05T05:32:49.102Z,1527.0909
2023-05-05T05:33:49.085Z,1555.8864
2023-05-05T05:34:49.925Z,1578.1860
2023-05-05T05:35:50.065Z,1557.9318
2023-05-05T05:36:51.069Z,1563.9778
2023-05-05T05:37:51.107Z,1602.9773
2023-05-05T05:38:52.396Z,1618.0222
2023-05-05T05:39:53.443Z,1638.0222
2023-05-05T05:40:53.976Z,1647.0682
2023-05-05T05:41:54.886Z,1665.3112
2023-05-05T05:42:56.265Z,1697.6222
2023-05-05T05:43:57.318Z,1711.4000
2023-05-05T05:44:58.147Z,1739.3556
2023-05-05T05:45:58.317Z,1743.5909
2023-05-05T05:46:58.909Z,1757.8409
2023-05-05T05:48:00.045Z,1774.2222
2023-05-05T05:49:00.019Z,1789.0233
2023-05-05T05:50:01.229Z,1790.7333
2023-05-05T05:51:02.448Z,1801.0682
2023-05-05T05:52:02.290Z,1821.0454
2023-05-05T05:53:02.952Z,1825.7273
2023-05-05T05:54:04.159Z,1838.8445
2023-05-05T05:55:05.090Z,1847.0444
2023-05-05T05:56:06.301Z,1867.0889
2023-05-05T05:57:07.597Z,1883.5111
2023-05-05T05:58:08.484Z,1883.0222
2023-05-05T05:59:09.537Z,1925.7111
2023-05-05T06:00:11.662Z,1967.8140
2023-05-05T06:01:12.505Z,1994.8000
2023-05-05T06:02:13.885Z,2021.9556
2023-05-05T06:03:14.876Z,2018.0454
2023-05-05T06:04:15.955Z,2036.3636
2023-05-05T06:05:15.887Z,2084.5454
2023-05-05T06:06:16.762Z,2127.8889
2023-05-05T06:07:17.740Z,2215.4666
2023-05-05T06:08:19.070Z,2280.0444
2023-05-05T06:09:19.936Z,2296.3999
2023-05-05T06:10:28.047Z,2261.7896
2023-05-05T06:11:24.873Z,2192.5610
2023-05-05T06:12:25.703Z,2195.0889
2023-05-05T06:13:25.867Z,2242.7954
2023-05-05T06:14:26.516Z,2293.0232
2023-05-05T06:15:27.650Z,2382.3999
2023-05-05T06:16:29.020Z,2406.8667
2023-05-05T06:17:30.046Z,2419.0222
2023-05-05T06:18:30.854Z,2412.5908
2023-05-05T06:19:31.693Z,2409.7556
2023-05-05T06:20:32.681Z,2450.4773
2023-05-05T06:21:33.701Z,2457.4221
2023-05-05T06:22:34.645Z,2447.5334
2023-05-05T06:23:35.629Z,2431.9111
2023-05-05T06:24:36.636Z,2446.0222
2023-05-05T06:25:37.544Z,2436.8445
2023-05-05T06:26:38.547Z,2424.3999
2023-05-05T06:27:39.493Z,2390.2222
2023-05-05T06:28:40.669Z,2345.2444
2023-05-05T06:29:41.798Z,2304.6223
2023-05-05T06:30:43.049Z,2298.3555
2023-05-05T06:31:44.327Z,2290.0444
2023-05-05T06:32:45.480Z,2253.9111
2023-05-05T06:33:46.525Z,2260.7556
2023-05-05T06:34:46.632Z,2255.2273
2023-05-05T06:35:47.824Z,2256.6223
2023-05-05T06:36:48.214Z,2252.6592
2023-05-05T06:37:50.259Z,2246.0222
2023-05-05T06:40:50.534Z,2343.9319
2023-05-05T06:41:51.882Z,2396.0000
2023-05-05T06:42:53.050Z,2455.9556
2023-05-05T06:43:54.549Z,2568.4443
2023-05-05T06:44:55.003Z,2709.3865
2023-05-05T06:45:56.191Z,2847.0889
2023-05-05T06:46:56.219Z,2943.3181
2023-05-05T06:47:57.643Z,2933.2000
2023-05-05T06:48:57.597Z,2907.9319
2023-05-05T06:49:58.717Z,2928.6890
2023-05-05T06:50:59.417Z,2993.9546
2023-05-05T06:52:00.097Z,2961.6592
2023-05-05T06:53:01.109Z,3365.2666
2023-05-05T06:54:02.331Z,3361.6223
2023-05-05T06:55:02.984Z,3546.3408
2023-05-05T06:56:04.124Z,3518.5779
2023-05-05T06:57:04.269Z,3607.1365
2023-05-05T06:58:05.230Z,3371.1555
2023-05-05T06:59:06.426Z,3160.9556
2023-05-05T07:00:07.832Z,3049.3333
2023-05-05T07:01:08.111Z,2977.2954
2023-05-05T07:02:08.184Z,2877.7500
2023-05-05T07:03:08.302Z,2857.1396
2023-05-05T07:04:08.549Z,2815.5681
2023-05-05T07:05:09.648Z,2805.8445
2023-05-05T07:06:10.747Z,2811.0222
2023-05-05T07:07:12.012Z,2821.3110
2023-05-05T07:08:13.085Z,2869.2444
2023-05-05T07:09:15.755Z,2895.7334
2023-05-05T07:10:15.653Z,2967.2327
2023-05-05T07:11:16.422Z,2978.9319
2023-05-05T07:12:17.622Z,2967.2000
2023-05-05T07:13:19.001Z,2950.4443
2023-05-05T07:14:19.041Z,2919.5227
2023-05-05T07:15:29.096Z,2904.1843
2023-05-05T07:16:24.623Z,2839.1250
2023-05-05T07:17:25.864Z,2773.5681
2023-05-05T07:18:25.872Z,2743.5908
2023-05-05T07:19:26.770Z,2837.1333
2023-05-05T07:20:27.922Z,2800.8223
2023-05-05T07:21:28.928Z,2785.7778
2023-05-05T07:22:30.116Z,2784.0222
2023-05-05T07:23:31.265Z,2722.7556
2023-05-05T07:24:32.261Z,2838.8000
2023-05-05T07:25:33.399Z,2907.3333
2023-05-05T07:26:34.711Z,2843.6001
2023-05-05T07:27:35.811Z,2749.2222
2023-05-05T07:28:36.930Z,2853.9333
2023-05-05T07:29:37.833Z,2894.6890
2023-05-05T07:30:38.260Z,2871.4390
2023-05-05T07:31:39.547Z,2886.0000
2023-05-05T07:32:39.614Z,2851.3181
2023-05-05T07:33:40.761Z,2773.0889
2023-05-05T07:34:41.626Z,2800.6223
2023-05-05T07:35:42.597Z,2758.3110
2023-05-05T07:36:43.756Z,2764.3555
2023-05-05T07:37:44.718Z,2784.7556
2023-05-05T07:38:44.965Z,2722.1628
2023-05-05T07:39:45.939Z,2854.0444
2023-05-05T07:40:46.649Z,2909.2727
2023-05-05T07:41:47.811Z,2878.0222
2023-05-05T07:42:48.826Z,2865.7556
2023-05-05T07:43:49.951Z,2855.7334
2023-05-05T07:44:50.957Z,2895.5557
2023-05-05T07:45:52.133Z,2938.7334
2023-05-05T07:46:52.137Z,3010.6592
2023-05-05T07:47:53.249Z,2982.1111
2023-05-05T07:49:54.211Z,2925.7556
2023-05-05T07:50:54.619Z,2885.7046
2023-05-05T07:51:55.873Z,2800.4419
2023-05-05T07:53:02.525Z,2789.4194
2023-05-05T07:53:56.873Z,2801.4443
2023-05-05T07:54:57.074Z,2799.5227
2023-05-05T07:55:58.079Z,2869.5112
2023-05-05T07:56:59.023Z,2860.2666
2023-05-05T07:58:00.200Z,2880.3110
2023-05-05T07:59:01.299Z,2871.6223
2023-05-05T08:00:02.151Z,2887.5334
2023-05-05T08:01:02.226Z,2957.1365
2023-05-05T08:02:03.138Z,3004.5334
2023-05-05T08:03:03.878Z,3067.9092
2023-05-05T08:04:04.938Z,3112.7856
2023-05-05T08:05:05.060Z,3118.3181
2023-05-05T08:06:04.990Z,3132.1819
2023-05-05T08:07:06.102Z,3134.9111
2023-05-05T08:08:06.706Z,3132.4092
2023-05-05T08:09:07.624Z,3136.6001
2023-05-05T08:10:08.916Z,3127.8223
2023-05-05T08:11:10.037Z,3109.3999
2023-05-05T08:12:10.763Z,3107.6365
2023-05-05T08:13:11.071Z,3097.0908
2023-05-05T08:14:12.289Z,3074.3777
2023-05-05T08:15:12.588Z,3074.4319
2023-05-05T08:16:12.708Z,3043.4546
2023-05-05T08:17:13.845Z,2994.0667
2023-05-05T08:18:14.017Z,2955.7273
2023-05-05T08:19:27.566Z,2965.3000
2023-05-05T08:20:14.638Z,2984.8250
2023-05-05T08:21:14.744Z,3014.3408
2023-05-05T08:22:15.881Z,3054.6667
2023-05-05T08:23:16.010Z,3101.6135
2023-05-05T08:24:17.403Z,3133.7556
2023-05-05T08:25:18.667Z,3149.0222
2023-05-05T08:26:18.845Z,3168.5681
2023-05-05T08:27:19.812Z,3157.9111
2023-05-05T08:28:19.895Z,3119.6592
2023-05-05T08:29:20.913Z,3193.0444
2023-05-05T08:30:20.963Z,3218.1592
2023-05-05T08:31:22.211Z,3230.9778
2023-05-05T08:34:23.877Z,3260.3110
2023-05-05T08:35:24.301Z,3316.6819
2023-05-05T08:36:25.543Z,3374.7334
2023-05-05T08:37:26.558Z,3455.7778
2023-05-05T08:38:27.720Z,3499.3999
2023-05-05T08:39:27.998Z,3567.3865
2023-05-05T08:40:28.584Z,3663.7727
2023-05-05T08:41:29.640Z,3834.0889
2023-05-05T08:42:36.937Z,3990.9722
2023-05-05T08:43:31.931Z,4140.7437
2023-05-05T08:44:33.150Z,4185.1333
2023-05-05T08:45:34.059Z,4197.4771
2023-05-05T08:46:35.265Z,4261.6221
2023-05-05T08:47:35.496Z,4330.5229
2023-05-05T08:48:35.734Z,4458.9546
2023-05-05T08:50:36.732Z,4736.6221
2023-05-05T08:51:37.503Z,4825.4761
2023-05-05T08:52:39.080Z,4900.6665
2023-05-05T08:53:40.164Z,5000.8887
2023-05-05T08:54:40.221Z,5056.0454
2023-05-05T08:55:40.695Z,5132.2729
2023-05-05T08:56:41.984Z,5175.7778
2023-05-05T08:57:43.406Z,5190.7334
2023-05-05T08:58:44.386Z,5199.1431
2023-05-05T08:59:44.453Z,5138.8638
2023-05-05T09:00:45.735Z,5055.3555
2023-05-05T09:01:45.990Z,4969.6816
2023-05-05T09:02:46.242Z,4865.4771
2023-05-05T09:03:47.266Z,4812.5454
2023-05-05T09:04:48.556Z,4772.4443
2023-05-05T09:05:49.049Z,4730.8184
2023-05-05T09:06:49.131Z,4663.7046
2023-05-05T09:07:50.384Z,4635.6221
2023-05-05T09:08:51.676Z,4647.0225
2023-05-05T09:09:51.693Z,4695.6279
2023-05-05T09:10:51.997Z,4750.9316
2023-05-05T09:11:53.162Z,4799.6001
2023-05-05T09:12:53.251Z,4852.2046
2023-05-05T09:13:53.462Z,4930.2046
2023-05-05T09:14:53.402Z,4949.8638
2023-05-05T09:15:53.538Z,4970.6743
2023-05-05T09:16:53.547Z,4999.1138
2023-05-05T09:17:53.767Z,5034.7046
2023-05-05T09:18:54.982Z,5005.2891
2023-05-05T09:19:55.046Z,4908.0454
2023-05-05T09:20:58.143Z,4770.6445
2023-05-05T09:21:56.743Z,4626.4048
2023-05-05T09:22:57.976Z,4565.2446
2023-05-05T09:24:04.897Z,4545.5581
2023-05-05T09:24:59.700Z,4652.7368
2023-05-05T09:25:59.917Z,4734.1138
2023-05-05T09:27:01.356Z,4767.8667
2023-05-05T09:28:01.327Z,4790.9546
2023-05-05T09:29:01.418Z,4839.0000
2023-05-05T09:30:02.653Z,4909.1113
2023-05-05T09:31:02.736Z,4982.1816
2023-05-05T09:32:02.828Z,5061.8408
2023-05-05T09:33:03.559Z,5119.0479
2023-05-05T09:34:04.720Z,5197.2002
2023-05-05T09:35:04.730Z,5277.4316
2023-05-05T09:36:04.877Z,5295.7954
2023-05-05T09:37:06.370Z,5298.3999
2023-05-05T09:38:07.017Z,5278.7500
2023-05-05T09:39:07.280Z,5300.9766
2023-05-05T09:40:07.389Z,5338.6362
2023-05-05T09:41:08.637Z,5452.2666
2023-05-05T09:42:09.910Z,5608.3110
2023-05-05T09:43:10.073Z,5684.3184
2023-05-05T09:44:10.164Z,5692.8638
2023-05-05T09:45:11.342Z,5632.1162
2023-05-05T09:46:11.545Z,5648.7954
2023-05-05T09:47:28.989Z,5622.2324
2023-05-05T09:48:17.325Z,5546.9443
2023-05-05T09:49:17.453Z,5482.8862
2023-05-05T09:50:17.757Z,5562.1362
2023-05-05T09:51:17.843Z,5667.7500
2023-05-05T09:52:17.863Z,5761.0454
2023-05-05T09:53:18.177Z,5773.0908
2023-05-05T09:54:18.278Z,5758.0684
2023-05-05T09:55:18.650Z,5800.8638
2023-05-05T09:56:19.119Z,5868.2271
2023-05-05T09:57:20.404Z,5974.0444
2023-05-05T09:58:20.703Z,6068.0000
2023-05-05T09:59:20.629Z,6175.2271
2023-05-05T10:00:21.293Z,6321.5684
2023-05-05T10:01:21.266Z,6399.7729
2023-05-05T10:02:21.598Z,6414.5454
2023-05-05T10:03:21.722Z,6448.0229
2023-05-05T10:04:21.879Z,6546.3862
2023-05-05T10:05:22.110Z,6584.4316
2023-05-05T10:06:22.396Z,6611.5229
2023-05-05T10:07:23.685Z,6691.7554
2023-05-05T10:08:23.712Z,6758.9771
2023-05-05T10:09:25.323Z,6850.2666
2023-05-05T10:10:26.920Z,6914.8638
2023-05-05T10:11:25.865Z,6976.9521
2023-05-05T10:12:27.021Z,6948.0225
2023-05-05T10:13:27.361Z,6918.4546
2023-05-05T10:14:28.612Z,6861.6890
2023-05-05T10:15:28.899Z,6825.1362
2023-05-05T10:16:29.712Z,6840.4316
2023-05-05T10:17:30.282Z,6845.2271
2023-05-05T10:18:30.947Z,6836.1577
2023-05-05T10:19:30.873Z,6870.1138
2023-05-05T10:20:31.087Z,6915.6816
2023-05-05T10:21:31.140Z,6957.0229
2023-05-05T10:22:31.325Z,6991.1816
2023-05-05T10:23:31.464Z,7120.1592
2023-05-05T10:24:31.746Z,7232.9546
2023-05-05T10:27:33.220Z,7085.5229
2023-05-05T10:28:33.347Z,6925.2954
2023-05-05T10:29:34.827Z,7073.9775
2023-05-05T10:30:35.417Z,7225.8408
2023-05-05T10:31:35.551Z,7318.0000
2023-05-05T10:33:42.679Z,7116.3999
2023-05-05T10:34:43.809Z,7082.2500
2023-05-05T10:35:45.028Z,7082.8442
2023-05-05T10:36:45.333Z,7105.1816
2023-05-05T10:37:45.242Z,7184.6592
2023-05-05T10:38:45.304Z,7173.4092
2023-05-05T10:39:46.760Z,7108.1113
2023-05-05T10:40:47.625Z,7098.2046
2023-05-05T10:41:48.004Z,7007.9771
2023-05-05T10:42:48.004Z,6958.1362
2023-05-05T10:43:48.171Z,6799.2271
2023-05-05T10:44:48.286Z,6736.2729
2023-05-05T10:45:49.115Z,6728.6816
2023-05-05T10:46:49.663Z,6688.8862
2023-05-05T10:47:50.118Z,6662.8184
2023-05-05T10:48:50.744Z,6727.9092
2023-05-05T10:49:50.689Z,7201.6816
2023-05-05T10:50:50.823Z,7298.2954
2023-05-05T10:51:51.407Z,7009.8252
2023-05-05T10:52:51.683Z,6628.7500
2023-05-05T10:53:52.978Z,6504.3779
2023-05-05T10:54:53.418Z,6454.9092
2023-05-05T10:55:53.386Z,6442.7954
2023-05-05T10:56:53.820Z,6441.4316
2023-05-05T10:57:53.831Z,6405.7500
2023-05-05T10:59:00.141Z,6377.5142
2023-05-05T10:59:55.230Z,6429.1748
2023-05-05T11:00:55.503Z,6431.7500
2023-05-05T11:01:56.291Z,6446.0229
2023-05-05T11:02:57.236Z,6524.7271
2023-05-05T11:03:57.949Z,6559.5229
2023-05-05T11:04:58.233Z,6527.1362
2023-05-05T11:05:58.380Z,6594.1592
2023-05-05T11:06:59.649Z,6611.3335
2023-05-05T11:08:00.709Z,6695.9048
2023-05-05T11:09:00.821Z,6783.6362
2023-05-05T11:10:01.002Z,6802.4092
2023-05-05T11:11:01.860Z,6801.1362
2023-05-05T11:12:02.315Z,6793.6592
2023-05-05T11:13:02.750Z,6747.6743
2023-05-05T11:14:03.757Z,6829.6592
2023-05-05T11:15:03.919Z,6828.1592
2023-05-05T11:16:04.097Z,6787.3638
2023-05-05T11:17:04.681Z,6743.1816
2023-05-05T11:18:07.376Z,6777.7046
2023-05-05T11:19:05.063Z,6869.9756
2023-05-05T11:20:05.121Z,6979.5454
2023-05-05T11:21:05.481Z,7074.9092
2023-05-05T11:22:05.689Z,7130.3408
2023-05-05T11:23:05.886Z,7171.0908
2023-05-05T11:24:06.056Z,7146.7729
2023-05-05T11:25:07.249Z,7233.0225
2023-05-05T11:26:07.502Z,7252.6362
2023-05-05T11:27:08.921Z,7347.1777
2023-05-05T11:28:09.107Z,7666.8408
2023-05-05T11:29:09.272Z,7845.2954
2023-05-05T11:30:10.520Z,7774.3408
2023-05-05T11:31:10.709Z,7994.8838
2023-05-05T11:32:11.010Z,8427.0908
2023-05-05T11:33:11.141Z,8453.8604
2023-05-05T11:34:12.378Z,8269.5332
2023-05-05T11:35:12.497Z,9475.8408
2023-05-05T11:36:13.950Z,14228.8662
2023-05-05T11:37:15.285Z,19702.0449
2023-05-05T11:38:15.478Z,19500.8867
2023-05-05T11:39:16.763Z,27447.8008
2023-05-05T11:40:17.019Z,37049.0234
2023-05-05T11:41:17.071Z,41287.7734
2023-05-05T11:42:18.305Z,44982.8984
2023-05-05T11:43:18.530Z,43194.2031
2023-05-05T11:44:18.570Z,34062.2500
2023-05-05T11:45:18.693Z,27576.4082
2023-05-05T11:46:19.104Z,19764.7051
2023-05-05T11:47:19.596Z,14463.5225
2023-05-05T11:48:20.080Z,12040.9316
2023-05-05T11:49:20.637Z,12608.6133
2023-05-05T11:50:20.590Z,13234.8633
2023-05-05T11:51:20.714Z,12877.8184
2023-05-05T11:52:20.765Z,12369.3184
2023-05-05T11:53:21.050Z,14319.2275
2023-05-05T11:54:21.285Z,13726.9775
2023-05-05T11:55:21.369Z,11680.1133
2023-05-05T11:56:22.810Z,10770.2666
2023-05-05T11:57:22.895Z,11174.9541
2023-05-05T11:58:23.136Z,9811.6592
2023-05-05T11:59:24.423Z,8625.1777
2023-05-05T12:00:24.621Z,8008.3955
2023-05-05T12:01:25.915Z,7363.8667
2023-05-05T12:02:26.332Z,7281.1362
2023-05-05T12:03:28.138Z,7228.5684
2023-05-05T12:04:28.533Z,6990.2095
2023-05-05T12:05:28.916Z,7425.0229
2023-05-05T12:06:29.233Z,8520.2861
2023-05-05T12:07:29.370Z,9193.9775
2023-05-05T12:08:29.402Z,10319.2041
2023-05-05T12:09:29.503Z,10441.8408
2023-05-05T12:10:30.642Z,12704.4092
2023-05-05T12:11:31.966Z,17564.6660
2023-05-05T12:12:32.337Z,20559.4082
2023-05-05T12:13:33.246Z,20974.2793
2023-05-05T12:14:34.464Z,18718.3105
2023-05-05T12:15:34.676Z,24071.3184
2023-05-05T12:16:34.882Z,25213.4316
2023-05-05T12:17:35.533Z,26973.2266
2023-05-05T12:18:36.222Z,35792.6602
2023-05-05T12:19:36.337Z,24989.9316
2023-05-05T12:20:37.680Z,18298.7324
2023-05-05T12:21:37.860Z,26379.6582
2023-05-05T12:22:38.058Z,33333.6836
2023-05-05T12:23:38.616Z,21958.5234
2023-05-05T12:24:38.630Z,26037.0449
2023-05-05T12:25:38.864Z,29015.5684
2023-05-05T12:26:38.876Z,35363.1836
2023-05-05T12:27:39.285Z,116579.3438
2023-05-05T12:28:39.356Z,56884.3633
2023-05-05T12:29:39.623Z,54045.6367
2023-05-05T12:30:40.655Z,33379.2969
2023-05-05T12:31:41.095Z,17961.7734
2023-05-05T12:32:41.716Z,86316.7031
2023-05-05T12:33:41.942Z,117333.6172
2023-05-05T12:34:42.107Z,76710.7266
2023-05-05T12:35:42.100Z,36029.6367
2023-05-05T12:36:42.685Z,29112.7383
2023-05-05T12:37:43.914Z,19284.4453